Time;durP1;ratioP1;P1;durP2;ratioP2;P2;SDS_P1;SDS_P2;PMS_P1;PMS_P2;Temp;Humidity;BMP_temperature;BMP_pressure;BME280_temperature;BME280_humidity;BME280_pressure;Samples;Min_cycle;Max_cycle;Signal;HPM_P1;HPM_P2
2022/01/01 00:01:54;;;;;;;85.13;43.53;;;10.90;99.90;;;;;;5141523;27;19918;-94
2022/01/01 00:04:39;;;;;;;93.53;46.63;;;10.90;99.90;;;;;;5141464;27;20072;-92
2022/01/01 00:07:24;;;;;;;117.22;60.22;;;10.90;99.90;;;;;;5157529;27;20486;-94
2022/01/01 00:10:08;;;;;;;113.50;62.78;;;10.90;99.90;;;;;;5159600;27;20042;-95
2022/01/01 00:12:52;;;;;;;104.47;50.78;;;10.90;99.90;;;;;;5162314;27;20175;-94
2022/01/01 00:15:37;;;;;;;86.88;43.83;;;10.90;99.90;;;;;;5162571;27;20281;-94
2022/01/01 00:18:21;;;;;;;81.22;38.00;;;11.00;99.90;;;;;;5147835;27;20042;-94
2022/01/01 00:21:06;;;;;;;81.00;36.90;;;11.00;99.90;;;;;;5138186;27;20447;-94
2022/01/01 00:23:50;;;;;;;74.57;37.15;;;11.00;99.90;;;;;;5149040;27;20090;-95
2022/01/01 00:26:35;;;;;;;68.25;32.72;;;11.00;99.90;;;;;;5166510;27;20037;-94
2022/01/01 00:29:19;;;;;;;68.40;30.25;;;11.00;99.90;;;;;;5165865;27;20045;-94
2022/01/01 00:32:05;;;;;;;67.30;30.20;;;11.00;99.90;;;;;;5164373;27;20022;-95
2022/01/01 00:34:52;;;;;;;73.40;32.55;;;10.90;99.90;;;;;;5149081;27;20091;-94
2022/01/01 00:37:37;;;;;;;60.17;28.05;;;10.90;99.90;;;;;;5168418;27;20079;-95
2022/01/01 00:40:21;;;;;;;71.07;29.15;;;10.90;99.90;;;;;;5169132;27;20045;-94
2022/01/01 00:43:05;;;;;;;73.00;28.75;;;10.90;99.90;;;;;;5139516;27;20041;-95
2022/01/01 00:45:49;;;;;;;68.90;27.70;;;10.90;99.90;;;;;;5168912;27;20038;-94
2022/01/01 00:48:33;;;;;;;66.70;27.58;;;10.80;99.90;;;;;;5155959;27;20064;-94
2022/01/01 00:51:18;;;;;;;54.05;23.15;;;10.80;99.90;;;;;;5168216;27;20081;-94
2022/01/01 00:54:02;;;;;;;53.00;22.27;;;10.80;99.90;;;;;;5168142;27;20080;-93
2022/01/01 00:56:46;;;;;;;64.60;21.38;;;10.80;99.90;;;;;;5170059;27;20544;-92
2022/01/01 00:59:30;;;;;;;52.03;19.83;;;10.70;99.90;;;;;;5175322;27;20061;-96
2022/01/01 01:02:15;;;;;;;55.33;18.27;;;10.70;99.90;;;;;;5170885;27;20029;-93
2022/01/01 01:04:59;;;;;;;;;;;10.70;99.90;;;;;;5154924;27;20056;-94
2022/01/01 01:07:43;;;;;;;53.60;19.52;;;10.60;99.90;;;;;;5175383;27;20435;-95
2022/01/01 01:10:28;;;;;;;53.05;19.92;;;10.70;99.90;;;;;;5159922;27;20041;-95
2022/01/01 01:13:15;;;;;;;77.22;24.77;;;10.60;99.90;;;;;;5171056;27;20034;-95
2022/01/01 01:16:00;;;;;;;57.38;17.27;;;10.50;99.90;;;;;;5158543;27;20523;-95
2022/01/01 01:18:44;;;;;;;72.25;25.08;;;10.60;99.90;;;;;;5168522;27;20038;-95
2022/01/01 01:21:29;;;;;;;64.18;22.38;;;10.50;99.90;;;;;;5152462;27;20042;-95
2022/01/01 01:24:14;;;;;;;54.50;25.13;;;10.60;99.90;;;;;;5154720;27;20042;-95
2022/01/01 01:27:02;;;;;;;73.32;32.25;;;10.60;99.90;;;;;;5169550;27;20075;-95
2022/01/01 01:29:46;;;;;;;81.72;34.67;;;10.60;99.90;;;;;;5151971;27;20102;-94
2022/01/01 01:32:31;;;;;;;77.03;39.35;;;10.60;99.90;;;;;;5137261;27;20429;-96
2022/01/01 01:35:15;;;;;;;88.25;39.53;;;10.60;99.90;;;;;;5167659;27;20087;-91
2022/01/01 01:38:00;;;;;;;101.22;43.38;;;10.60;99.90;;;;;;5164973;27;20064;-96
2022/01/01 01:40:44;;;;;;;101.85;46.95;;;10.60;99.90;;;;;;5149359;27;20087;-95
2022/01/01 01:43:29;;;;;;;106.43;48.72;;;10.70;99.90;;;;;;5148325;27;20041;-95
2022/01/01 01:46:14;;;;;;;104.35;49.15;;;10.60;99.90;;;;;;5133060;27;20122;-96
2022/01/01 01:48:58;;;;;;;114.68;51.35;;;10.60;99.90;;;;;;5147176;27;20398;-95
2022/01/01 01:51:42;;;;;;;;;;;10.70;99.90;;;;;;5145485;27;20045;-95
2022/01/01 01:54:27;;;;;;;91.15;44.90;;;10.60;99.90;;;;;;5163421;27;19922;-94
2022/01/01 01:57:11;;;;;;;107.20;48.35;;;10.70;99.90;;;;;;5164727;27;20042;-95
2022/01/01 01:59:56;;;;;;;92.22;45.70;;;10.70;99.90;;;;;;5180708;27;20109;-92
2022/01/01 02:02:40;;;;;;;96.40;44.13;;;10.70;99.90;;;;;;5180680;27;20071;-94
2022/01/01 02:05:25;;;;;;;;;;;10.70;99.90;;;;;;5180216;27;20083;-94
2022/01/01 02:08:10;;;;;;;92.13;40.15;;;10.70;99.90;;;;;;5165561;27;19917;-94
2022/01/01 02:10:54;;;;;;;96.60;43.63;;;10.70;99.90;;;;;;5164360;27;20072;-86
2022/01/01 02:14:02;;;;;;;92.45;40.70;;;10.70;99.90;;;;;;5170498;27;20045;-95
2022/01/01 02:19:51;;;;;;;80.20;34.17;;;10.70;99.90;;;;;;5153405;27;20041;-95
2022/01/01 02:22:40;;;;;;;82.95;35.40;;;10.70;99.90;;;;;;5165107;27;20038;-95
2022/01/01 02:25:25;;;;;;;77.50;33.95;;;10.70;99.90;;;;;;5150461;27;20117;-95
2022/01/01 02:28:12;;;;;;;75.65;32.75;;;10.70;99.90;;;;;;5149507;27;20042;-95
2022/01/01 02:30:57;;;;;;;72.63;31.30;;;10.60;99.90;;;;;;5162314;27;20086;-88
2022/01/01 02:33:43;;;;;;;77.43;32.08;;;10.70;99.90;;;;;;5144839;27;20085;-95
2022/01/01 02:36:41;;;;;;;78.43;32.92;;;10.60;99.90;;;;;;5163389;27;20091;-95
2022/01/01 02:39:25;;;;;;;75.30;33.40;;;10.60;99.90;;;;;;5159207;27;20034;-94
2022/01/01 02:42:11;;;;;;;86.38;34.20;;;10.60;99.90;;;;;;5129481;27;20038;-96
2022/01/01 02:44:58;;;;;;;83.63;36.30;;;10.60;99.90;;;;;;5144549;27;20409;-95
2022/01/01 02:47:42;;;;;;;75.50;36.67;;;10.60;99.90;;;;;;5129143;27;20159;-94
2022/01/01 02:50:26;;;;;;;85.50;37.85;;;10.60;99.90;;;;;;5128529;27;20512;-94
2022/01/01 02:53:14;;;;;;;102.47;40.92;;;10.60;99.90;;;;;;5144041;27;20089;-94
2022/01/01 02:55:58;;;;;;;96.68;42.58;;;10.60;99.90;;;;;;5159388;27;20062;-95
2022/01/01 02:58:43;;;;;;;95.65;41.53;;;10.60;99.90;;;;;;5128807;27;20042;-95
2022/01/01 03:01:27;;;;;;;97.05;43.80;;;10.60;99.90;;;;;;5144878;27;20099;-94
2022/01/01 03:04:11;;;;;;;88.85;43.58;;;10.60;99.90;;;;;;5113748;27;20088;-94
2022/01/01 03:06:56;;;;;;;;;;;10.70;99.90;;;;;;5158530;27;20037;-93
2022/01/01 03:09:40;;;;;;;91.72;42.70;;;10.60;99.90;;;;;;5158692;27;19967;-95
2022/01/01 03:12:24;;;;;;;89.07;41.55;;;10.60;99.90;;;;;;5157717;27;20116;-94
2022/01/01 03:15:08;;;;;;;;;;;10.60;99.90;;;;;;5158315;27;20037;-94
2022/01/01 03:17:52;;;;;;;92.90;42.35;;;10.60;99.90;;;;;;5158143;27;19918;-94
2022/01/01 03:20:37;;;;;;;98.72;44.13;;;10.50;99.90;;;;;;5157938;27;20109;-94
2022/01/01 03:23:21;;;;;;;89.05;42.17;;;10.60;99.90;;;;;;5156881;27;20042;-94
2022/01/01 03:26:06;;;;;;;93.13;44.55;;;10.60;99.90;;;;;;5127698;27;20064;-92
2022/01/01 03:28:50;;;;;;;91.05;43.55;;;10.60;99.90;;;;;;5157733;27;20085;-95
2022/01/01 03:31:34;;;;;;;89.13;43.03;;;10.60;99.90;;;;;;5142635;27;20398;-94
2022/01/01 03:34:21;;;;;;;96.07;43.60;;;10.60;99.90;;;;;;5141605;27;20554;-94
2022/01/01 03:37:05;;;;;;;89.43;42.15;;;10.60;99.90;;;;;;5142414;27;20090;-93
2022/01/01 03:39:49;;;;;;;97.95;44.03;;;10.70;99.90;;;;;;5142081;27;20536;-92
2022/01/01 03:42:33;;;;;;;94.55;41.33;;;10.70;99.90;;;;;;5127388;27;20394;-93
2022/01/01 03:45:18;;;;;;;86.45;41.92;;;10.70;99.90;;;;;;5141520;27;20041;-94
2022/01/01 03:48:02;;;;;;;;;;;10.70;99.90;;;;;;5142210;27;20073;-93
2022/01/01 03:50:46;;;;;;;81.85;41.33;;;10.60;99.90;;;;;;5141500;27;19921;-92
2022/01/01 03:53:30;;;;;;;;;;;10.70;99.90;;;;;;5157330;27;20045;-93
2022/01/01 03:56:14;;;;;;;79.68;42.95;;;10.70;99.90;;;;;;5156668;27;20016;-94
2022/01/01 03:58:59;;;;;;;85.75;42.45;;;10.70;99.90;;;;;;5127340;27;20076;-93
2022/01/01 04:01:43;;;;;;;87.25;42.03;;;10.70;99.90;;;;;;5141681;27;20037;-93
2022/01/01 04:04:27;;;;;;;;;;;10.70;99.90;;;;;;5141563;27;20045;-92
2022/01/01 04:07:12;;;;;;;89.15;42.45;;;10.70;99.90;;;;;;5141093;27;20356;-92
2022/01/01 04:09:56;;;;;;;85.68;42.15;;;10.70;99.90;;;;;;5156785;27;20122;-93
2022/01/01 04:12:40;;;;;;;91.70;46.63;;;10.80;99.90;;;;;;5141399;27;20042;-93
2022/01/01 04:15:26;;;;;;;95.72;49.30;;;10.70;99.90;;;;;;5126349;27;20099;-93
2022/01/01 04:18:12;;;;;;;101.03;51.72;;;10.70;99.90;;;;;;5156040;27;20638;-93
2022/01/01 04:20:57;;;;;;;96.07;52.60;;;10.70;99.90;;;;;;5140838;27;20070;-91
2022/01/01 04:23:43;;;;;;;106.45;53.08;;;10.70;99.90;;;;;;5126920;27;20076;-91
2022/01/01 04:26:28;;;;;;;105.20;54.13;;;10.70;99.90;;;;;;5155989;27;20042;-92
2022/01/01 04:29:12;;;;;;;108.65;55.80;;;10.70;99.90;;;;;;5141002;27;20108;-92
2022/01/01 04:31:56;;;;;;;;;;;10.70;99.90;;;;;;5157141;27;20091;-92
2022/01/01 04:34:41;;;;;;;106.03;51.55;;;10.70;99.90;;;;;;5140955;27;19917;-92
2022/01/01 04:37:24;;;;;;;108.60;54.50;;;10.70;99.90;;;;;;5140377;27;20038;-94
2022/01/01 04:40:09;;;;;;;;;;;10.80;99.90;;;;;;5156591;27;20037;-92
2022/01/01 04:42:53;;;;;;;116.63;57.22;;;10.60;99.90;;;;;;5156081;27;19914;-91
2022/01/01 04:45:37;;;;;;;109.15;58.42;;;10.60;99.90;;;;;;5125683;27;20042;-91
2022/01/01 04:48:21;;;;;;;111.43;54.40;;;10.60;99.90;;;;;;5155599;27;20130;-91
2022/01/01 04:51:11;;;;;;;116.18;55.90;;;10.60;99.90;;;;;;5155970;27;20049;-92
2022/01/01 04:53:59;;;;;;;108.47;55.13;;;10.60;99.90;;;;;;5155706;27;20049;-90
2022/01/01 04:56:46;;;;;;;99.18;54.50;;;10.70;99.90;;;;;;5140880;27;20058;-91
2022/01/01 04:59:30;;;;;;;106.43;54.28;;;10.60;99.90;;;;;;5125910;27;20038;-93
2022/01/01 05:02:14;;;;;;;;;;;10.60;99.90;;;;;;5156063;27;20038;-90
2022/01/01 05:04:58;;;;;;;107.13;53.05;;;10.60;99.90;;;;;;5125941;27;20014;-92
2022/01/01 05:07:43;;;;;;;;;;;10.60;99.90;;;;;;5155586;27;20037;-91
2022/01/01 05:10:27;;;;;;;103.50;51.55;;;10.60;99.90;;;;;;5154840;27;19982;-90
2022/01/01 05:13:13;;;;;;;;;;;10.70;99.90;;;;;;5155858;27;20041;-91
2022/01/01 05:15:58;;;;;;;107.97;52.83;;;10.70;99.90;;;;;;5140318;27;19964;-91
2022/01/01 05:18:42;;;;;;;110.05;53.92;;;10.60;99.90;;;;;;5139256;27;20089;-92
2022/01/01 05:21:30;;;;;;;;;;;10.70;99.90;;;;;;5139894;27;20386;-92
2022/01/01 05:24:18;;;;;;;107.15;51.38;;;10.70;99.90;;;;;;5139736;27;20007;-90
2022/01/01 05:27:02;;;;;;;114.30;53.78;;;10.70;99.90;;;;;;5139637;27;20046;-91
2022/01/01 05:29:47;;;;;;;110.72;51.53;;;10.70;99.90;;;;;;5154827;27;20045;-90
2022/01/01 05:32:31;;;;;;;111.15;52.15;;;10.90;99.90;;;;;;5154737;27;20042;-92
2022/01/01 05:35:15;;;;;;;;;;;10.80;99.90;;;;;;5155875;27;20037;-90
2022/01/01 05:37:59;;;;;;;106.43;48.97;;;10.70;99.90;;;;;;5139806;27;19914;-90
2022/01/01 05:40:43;;;;;;;108.22;52.28;;;10.80;99.90;;;;;;5154702;27;20126;-91
2022/01/01 05:43:28;;;;;;;112.82;50.60;;;10.80;99.90;;;;;;5139111;27;20440;-92
2022/01/01 05:46:12;;;;;;;;;;;10.90;99.90;;;;;;5139958;27;20046;-90
2022/01/01 05:48:56;;;;;;;99.82;45.92;;;10.80;99.90;;;;;;5155108;27;19918;-90
2022/01/01 05:51:40;;;;;;;99.30;45.08;;;10.80;99.90;;;;;;5138939;27;20049;-92
2022/01/01 05:54:24;;;;;;;90.85;41.97;;;10.80;99.90;;;;;;5154858;27;20045;-92
2022/01/01 05:57:09;;;;;;;101.32;43.00;;;10.80;99.90;;;;;;5139583;27;20118;-91
2022/01/01 05:59:53;;;;;;;91.97;40.15;;;10.80;99.90;;;;;;5139877;27;20045;-91
2022/01/01 06:02:38;;;;;;;;;;;10.80;99.90;;;;;;5124772;27;20086;-90
2022/01/01 06:05:23;;;;;;;85.13;33.97;;;10.70;99.90;;;;;;5155054;27;19957;-91
2022/01/01 06:08:07;;;;;;;;;;;10.80;99.90;;;;;;5155777;27;20049;-92
2022/01/01 06:10:51;;;;;;;82.80;30.45;;;10.80;99.90;;;;;;5154700;27;19918;-91
2022/01/01 06:13:35;;;;;;;76.38;28.60;;;10.70;99.90;;;;;;5154849;27;20073;-92
2022/01/01 06:16:19;;;;;;;80.20;28.70;;;10.80;99.90;;;;;;5139612;27;20494;-91
2022/01/01 06:19:03;;;;;;;;;;;10.70;99.90;;;;;;5140198;27;20099;-92
2022/01/01 06:21:47;;;;;;;78.45;27.67;;;10.90;99.90;;;;;;5138700;27;19940;-92
2022/01/01 06:24:32;;;;;;;83.72;27.75;;;10.80;99.90;;;;;;5124211;27;20080;-91
2022/01/01 06:27:16;;;;;;;77.50;28.33;;;10.80;99.90;;;;;;5154573;27;20042;-92
2022/01/01 06:30:00;;;;;;;;;;;10.80;99.90;;;;;;5139465;27;20042;-92
2022/01/01 06:32:45;;;;;;;80.57;25.20;;;10.90;99.90;;;;;;5124035;27;20055;-92
2022/01/01 06:35:29;;;;;;;70.45;25.77;;;10.80;99.90;;;;;;5139058;27;20531;-92
2022/01/01 06:38:15;;;;;;;76.20;24.75;;;10.80;99.90;;;;;;5154419;27;20046;-91
2022/01/01 06:40:59;;;;;;;71.38;24.95;;;10.90;99.90;;;;;;5154521;27;20438;-92
2022/01/01 06:43:43;;;;;;;71.60;25.77;;;10.90;99.90;;;;;;5157271;27;20073;-91
2022/01/01 06:46:27;;;;;;;;;;;10.90;99.90;;;;;;5158763;27;20056;-91
2022/01/01 06:49:12;;;;;;;75.15;26.52;;;10.90;99.90;;;;;;5157936;27;19917;-90
2022/01/01 06:51:56;;;;;;;67.05;24.05;;;10.90;99.90;;;;;;5157627;27;20126;-88
2022/01/01 06:54:40;;;;;;;80.57;23.58;;;11.00;99.90;;;;;;5157726;27;20054;-91
2022/01/01 06:57:24;;;;;;;;;;;11.00;99.90;;;;;;5158431;27;20041;-90
2022/01/01 07:00:10;;;;;;;74.38;23.85;;;10.90;99.90;;;;;;5142207;27;20377;-90
2022/01/01 07:02:54;;;;;;;65.03;22.92;;;11.00;99.90;;;;;;5141799;27;20080;-91
2022/01/01 07:05:38;;;;;;;71.75;21.67;;;11.10;99.90;;;;;;5141763;27;20049;-90
2022/01/01 07:08:22;;;;;;;68.65;23.42;;;11.00;99.90;;;;;;5142232;27;20037;-90
2022/01/01 07:11:06;;;;;;;;;;;11.10;99.90;;;;;;5158042;27;20037;-90
2022/01/01 07:13:50;;;;;;;63.65;21.20;;;11.10;99.90;;;;;;5141830;27;19922;-90
2022/01/01 07:16:34;;;;;;;;;;;11.10;99.90;;;;;;5157947;27;20049;-90
2022/01/01 07:19:19;;;;;;;58.22;20.50;;;11.10;99.90;;;;;;5141907;27;19914;-91
2022/01/01 07:22:03;;;;;;;57.38;19.92;;;11.10;99.90;;;;;;5141842;27;20046;-89
2022/01/01 07:24:49;;;;;;;51.35;20.33;;;11.20;99.90;;;;;;5141304;27;20077;-89
2022/01/01 07:27:34;;;;;;;62.45;19.52;;;11.20;99.90;;;;;;5157216;27;20053;-91
2022/01/01 07:30:18;;;;;;;61.55;20.70;;;11.30;99.90;;;;;;5157930;27;20084;-92
2022/01/01 07:33:02;;;;;;;55.92;19.50;;;11.20;99.90;;;;;;5127241;27;20470;-90
2022/01/01 07:35:46;;;;;;;57.30;20.10;;;11.20;99.90;;;;;;5126850;27;20042;-90
2022/01/01 07:38:31;;;;;;;53.55;21.42;;;11.30;99.90;;;;;;5127964;27;20037;-91
2022/01/01 07:41:15;;;;;;;59.22;21.20;;;11.30;99.90;;;;;;5157015;27;20045;-90
2022/01/01 07:43:59;;;;;;;56.67;21.25;;;11.30;99.90;;;;;;5140958;27;20042;-90
2022/01/01 07:46:44;;;;;;;56.33;21.05;;;11.30;99.90;;;;;;5126747;27;20061;-91
2022/01/01 07:49:28;;;;;;;;;;;11.30;99.90;;;;;;5141474;27;20046;-91
2022/01/01 07:52:12;;;;;;;51.33;21.65;;;11.30;99.90;;;;;;5126524;27;20281;-90
2022/01/01 07:54:56;;;;;;;63.97;21.55;;;11.30;99.90;;;;;;5140743;27;20061;-91
2022/01/01 07:57:40;;;;;;;57.17;22.73;;;11.30;99.90;;;;;;5156334;27;20059;-91
2022/01/01 08:00:24;;;;;;;;;;;11.30;99.90;;;;;;5156501;27;20577;-89
2022/01/01 08:03:11;;;;;;;56.85;23.35;;;11.30;99.90;;;;;;5126540;27;19933;-90
2022/01/01 08:05:55;;;;;;;52.83;21.55;;;11.30;99.90;;;;;;5155231;27;20034;-89
2022/01/01 08:08:40;;;;;;;51.80;21.13;;;11.40;99.90;;;;;;5154689;27;20038;-90
2022/01/01 08:11:25;;;;;;;56.88;23.00;;;11.30;99.90;;;;;;5139675;27;20050;-92
2022/01/01 08:14:09;;;;;;;55.47;23.27;;;11.40;99.90;;;;;;5139798;27;20103;-90
2022/01/01 08:17:04;;;;;;;60.03;22.65;;;11.40;99.90;;;;;;5153533;27;20083;-90
2022/01/01 08:19:48;;;;;;;65.55;23.55;;;11.40;99.90;;;;;;5168639;27;20087;-87
2022/01/01 08:22:32;;;;;;;;;;;11.50;99.90;;;;;;5167404;27;20033;-90
2022/01/01 08:25:16;;;;;;;61.30;22.67;;;11.50;99.90;;;;;;5156558;27;19918;-89
2022/01/01 08:28:01;;;;;;;65.38;24.70;;;11.50;99.90;;;;;;5167912;27;20038;-88
2022/01/01 08:30:46;;;;;;;63.75;23.63;;;11.50;99.90;;;;;;5170929;27;20057;-90
2022/01/01 08:33:30;;;;;;;61.17;25.75;;;11.50;99.90;;;;;;5154091;27;20083;-89
2022/01/01 08:36:14;;;;;;;59.17;25.50;;;11.50;99.90;;;;;;5142878;27;20118;-89
2022/01/01 08:38:58;;;;;;;69.75;27.88;;;11.50;99.90;;;;;;5155098;27;20543;-90
2022/01/01 08:41:44;;;;;;;65.47;26.83;;;11.50;99.90;;;;;;5155790;27;20045;-91
2022/01/01 08:44:28;;;;;;;68.60;26.67;;;11.60;99.90;;;;;;5156069;27;20490;-92
2022/01/01 08:47:12;;;;;;;62.53;27.08;;;11.50;99.90;;;;;;5139766;27;20046;-90
2022/01/01 08:49:57;;;;;;;67.53;27.40;;;11.50;99.90;;;;;;5139393;27;20130;-90
2022/01/01 08:52:43;;;;;;;58.63;27.75;;;11.60;99.90;;;;;;5141297;27;20043;-90
2022/01/01 08:55:29;;;;;;;56.80;26.35;;;11.60;99.90;;;;;;5156048;27;20237;-91
2022/01/01 08:58:13;;;;;;;61.28;26.92;;;11.60;99.90;;;;;;5155048;27;20034;-90
2022/01/01 09:00:57;;;;;;;59.47;26.25;;;11.70;99.90;;;;;;5154758;27;20086;-89
2022/01/01 09:03:41;;;;;;;;;;;11.70;99.90;;;;;;5132798;27;20038;-88
2022/01/01 09:06:26;;;;;;;60.15;24.20;;;11.70;99.90;;;;;;5143855;27;19914;-86
2022/01/01 09:09:10;;;;;;;57.28;25.63;;;11.70;99.90;;;;;;5123940;27;20087;-88
2022/01/01 09:11:54;;;;;;;60.70;25.45;;;11.70;99.90;;;;;;5136616;27;20037;-89
2022/01/01 09:14:39;;;;;;;49.03;25.63;;;11.80;99.90;;;;;;5136900;27;20467;-89
2022/01/01 09:17:24;;;;;;;51.70;25.38;;;11.80;99.90;;;;;;5104169;27;20042;-89
2022/01/01 09:20:08;;;;;;;57.38;25.77;;;11.90;99.90;;;;;;5137687;27;20413;-90
2022/01/01 09:22:52;;;;;;;51.45;24.58;;;11.90;99.90;;;;;;5129870;27;20037;-90
2022/01/01 09:25:37;;;;;;;50.40;23.55;;;12.00;99.90;;;;;;5123754;27;20038;-91
2022/01/01 09:28:21;;;;;;;;;;;12.00;99.90;;;;;;5129780;27;20125;-91
2022/01/01 09:31:05;;;;;;;42.45;20.73;;;12.00;99.90;;;;;;5117336;27;19922;-89
2022/01/01 09:33:50;;;;;;;51.40;21.20;;;12.00;99.90;;;;;;5151874;27;20041;-88
2022/01/01 09:36:34;;;;;;;39.33;22.35;;;12.10;99.90;;;;;;5134358;27;20033;-88
2022/01/01 09:39:19;;;;;;;41.88;20.70;;;12.10;99.90;;;;;;5140701;27;20046;-89
2022/01/01 09:42:03;;;;;;;45.22;21.27;;;12.10;99.90;;;;;;5136130;27;20038;-89
2022/01/01 09:44:48;;;;;;;44.80;20.95;;;12.10;99.90;;;;;;5143494;27;20042;-90
2022/01/01 09:47:32;;;;;;;44.55;21.77;;;12.20;99.90;;;;;;5153015;27;20087;-88
2022/01/01 09:50:17;;;;;;;42.40;20.23;;;12.20;99.90;;;;;;5138029;27;20103;-85
2022/01/01 09:53:02;;;;;;;46.78;20.60;;;12.20;99.90;;;;;;5164408;27;20038;-88
2022/01/01 09:55:47;;;;;;;40.85;18.88;;;12.20;99.90;;;;;;5161028;27;20046;-89
2022/01/01 09:58:33;;;;;;;40.22;19.60;;;12.20;99.90;;;;;;5154943;27;20037;-92
2022/01/01 10:01:18;;;;;;;36.20;19.20;;;12.30;99.90;;;;;;5141977;27;20709;-88
2022/01/01 10:04:14;;;;;;;41.58;19.67;;;12.20;99.90;;;;;;5103146;28;20391;-88
2022/01/01 10:07:04;;;;;;;47.25;21.27;;;12.30;99.90;;;;;;5146722;27;20069;-83
2022/01/01 10:09:48;;;;;;;35.42;19.15;;;12.20;99.90;;;;;;5154284;27;20045;-88
2022/01/01 10:12:41;;;;;;;37.03;18.58;;;12.30;99.90;;;;;;5154195;27;20494;-86
2022/01/01 10:15:25;;;;;;;40.17;18.67;;;12.30;99.90;;;;;;5138082;27;20033;-85
2022/01/01 10:18:10;;;;;;;41.05;19.73;;;12.30;99.90;;;;;;5156283;27;20103;-86
2022/01/01 10:21:05;;;;;;;34.15;17.98;;;12.30;99.90;;;;;;5151990;27;20088;-85
2022/01/01 10:23:53;;;;;;;37.28;18.55;;;12.30;99.90;;;;;;5154792;27;20033;-86
2022/01/01 10:29:40;;;;;;;35.80;17.73;;;12.30;99.90;;;;;;5143272;27;20045;-86
2022/01/01 10:32:25;;;;;;;36.45;18.48;;;12.40;99.90;;;;;;5140830;27;20443;-86
2022/01/01 10:35:16;;;;;;;34.50;16.15;;;12.30;99.90;;;;;;5156139;27;20063;-85
2022/01/01 10:38:03;;;;;;;32.88;16.77;;;12.30;99.90;;;;;;5142322;27;20518;-85
2022/01/01 10:40:52;;;;;;;29.90;15.95;;;12.30;99.90;;;;;;5142118;27;20166;-85
2022/01/01 10:43:39;;;;;;;34.75;16.10;;;12.30;99.90;;;;;;5157683;27;20042;-87
2022/01/01 10:46:23;;;;;;;38.55;16.67;;;12.30;99.90;;;;;;5141509;27;20042;-87
2022/01/01 10:49:52;;;;;;;31.65;15.60;;;12.30;99.90;;;;;;5141445;27;20042;-87
2022/01/01 10:52:36;;;;;;;35.70;14.88;;;12.30;99.90;;;;;;5158003;27;20072;-86
2022/01/01 10:55:22;;;;;;;27.40;14.85;;;12.30;99.90;;;;;;5156992;27;20053;-86
2022/01/01 10:58:06;;;;;;;25.45;14.18;;;12.40;99.90;;;;;;5141988;27;20490;-86
2022/01/01 11:00:52;;;;;;;28.40;13.55;;;12.40;99.90;;;;;;5156926;27;20038;-84
2022/01/01 11:03:43;;;;;;;32.22;13.57;;;12.40;99.90;;;;;;5157101;27;20034;-85
2022/01/01 11:06:32;;;;;;;30.95;12.93;;;12.40;99.90;;;;;;5140808;27;20455;-85
2022/01/01 11:09:17;;;;;;;28.80;13.20;;;12.50;99.90;;;;;;5156660;27;20085;-84
2022/01/01 11:12:03;;;;;;;28.52;11.25;;;12.50;99.90;;;;;;5157084;27;20406;-85
2022/01/01 11:14:48;;;;;;;24.70;12.05;;;12.60;99.90;;;;;;5141342;27;20468;-84
2022/01/01 11:17:33;;;;;;;23.95;12.40;;;12.60;99.90;;;;;;5156558;27;20042;-85
2022/01/01 11:20:20;;;;;;;20.90;10.50;;;12.60;99.90;;;;;;5146410;27;20098;-84
2022/01/01 11:23:08;;;;;;;17.13;9.30;;;12.60;99.90;;;;;;5138301;27;20037;-83
2022/01/01 11:25:54;;;;;;;18.17;9.00;;;12.60;99.90;;;;;;5156561;27;20077;-83
2022/01/01 11:28:39;;;;;;;15.95;8.10;;;12.60;99.90;;;;;;5155777;27;20037;-83
2022/01/01 11:31:24;;;;;;;21.88;8.23;;;12.60;99.90;;;;;;5155441;27;20042;-85
2022/01/01 11:34:09;;;;;;;15.90;7.57;;;12.60;99.90;;;;;;5156350;27;20398;-84
2022/01/01 11:36:53;;;;;;;15.00;7.40;;;12.60;99.90;;;;;;5155278;27;20555;-83
2022/01/01 11:39:37;;;;;;;;;;;12.60;99.90;;;;;;5156629;27;20062;-83
2022/01/01 11:42:23;;;;;;;17.77;6.57;;;12.60;99.90;;;;;;5156168;27;20339;-83
2022/01/01 11:45:07;;;;;;;14.38;6.75;;;12.60;99.90;;;;;;5156737;27;20079;-83
2022/01/01 11:47:51;;;;;;;16.15;6.35;;;12.60;99.90;;;;;;5156449;27;20069;-83
2022/01/01 11:50:42;;;;;;;;;;;12.70;99.90;;;;;;5140604;27;20095;-83
2022/01/01 11:53:32;;;;;;;17.38;7.57;;;12.60;99.90;;;;;;5155863;27;19968;-83
2022/01/01 11:56:17;;;;;;;12.07;6.60;;;12.60;99.90;;;;;;5156173;27;20065;-82
2022/01/01 11:59:16;;;;;;;20.58;9.23;;;12.60;99.90;;;;;;5140481;27;20068;-84
2022/01/01 12:02:04;;;;;;;15.05;6.57;;;12.70;99.90;;;;;;5156139;27;20030;-83
2022/01/01 12:04:54;;;;;;;12.93;5.63;;;12.70;99.90;;;;;;5156020;27;20073;-83
2022/01/01 12:07:44;;;;;;;14.65;5.82;;;12.70;99.90;;;;;;5155637;27;20464;-83
2022/01/01 12:10:31;;;;;;;13.90;6.45;;;12.70;99.90;;;;;;5155417;27;20083;-83
2022/01/01 12:13:16;;;;;;;12.85;5.70;;;12.70;99.90;;;;;;5140239;27;20038;-83
2022/01/01 12:16:00;;;;;;;13.10;6.10;;;12.70;99.90;;;;;;5155944;27;20042;-83
2022/01/01 12:18:44;;;;;;;;;;;12.70;99.90;;;;;;5140696;27;20144;-83
2022/01/01 12:21:37;;;;;;;16.20;5.35;;;12.70;99.90;;;;;;5155303;27;19955;-82
2022/01/01 12:24:26;;;;;;;12.68;5.43;;;12.70;99.90;;;;;;5126148;27;20058;-82
2022/01/01 12:27:14;;;;;;;14.13;5.60;;;12.70;99.90;;;;;;5155527;27;20045;-83
2022/01/01 12:30:06;;;;;;;10.40;5.22;;;12.70;99.90;;;;;;5155467;27;20046;-83
2022/01/01 12:32:53;;;;;;;13.00;4.72;;;12.70;99.90;;;;;;5155469;27;20501;-83
2022/01/01 12:35:44;;;;;;;12.45;5.07;;;12.70;99.90;;;;;;5155053;27;20033;-83
2022/01/01 12:38:30;;;;;;;10.75;5.25;;;12.70;99.90;;;;;;5154884;27;20079;-83
2022/01/01 12:41:15;;;;;;;9.57;5.28;;;12.80;99.90;;;;;;5154596;27;20038;-82
2022/01/01 12:44:08;;;;;;;11.95;5.07;;;12.80;99.90;;;;;;5155518;27;20152;-82
2022/01/01 12:46:57;;;;;;;11.18;5.35;;;12.80;99.90;;;;;;5155278;27;20074;-83
2022/01/01 12:49:41;;;;;;;12.70;5.38;;;12.80;99.90;;;;;;5154683;27;20121;-82
2022/01/01 12:52:27;;;;;;;15.68;7.13;;;12.80;99.90;;;;;;5139162;27;20095;-82
2022/01/01 12:55:13;;;;;;;13.45;5.55;;;12.80;99.90;;;;;;5154797;27;20077;-82
2022/01/01 12:58:08;;;;;;;12.02;4.93;;;12.70;99.90;;;;;;5155206;27;20172;-83
2022/01/01 13:00:52;;;;;;;15.57;5.95;;;12.70;99.90;;;;;;5155055;27;20063;-82
2022/01/01 13:03:37;;;;;;;16.63;6.05;;;12.80;99.90;;;;;;5154573;27;20454;-82
2022/01/01 13:06:32;;;;;;;14.30;5.88;;;12.70;99.90;;;;;;5154918;27;20041;-82
2022/01/01 13:09:19;;;;;;;16.95;6.35;;;12.80;99.90;;;;;;5154783;27;20088;-82
2022/01/01 13:12:08;;;;;;;13.23;5.40;;;12.70;99.90;;;;;;5155001;27;20118;-82
2022/01/01 13:14:53;;;;;;;18.98;6.45;;;12.80;99.90;;;;;;5154892;27;20038;-82
2022/01/01 13:17:39;;;;;;;11.15;5.60;;;12.80;99.90;;;;;;5154379;27;20034;-82
2022/01/01 13:20:25;;;;;;;14.07;6.28;;;12.80;99.90;;;;;;5154690;27;20451;-82
2022/01/01 13:23:15;;;;;;;12.38;5.85;;;12.80;99.90;;;;;;5154623;27;20063;-82
2022/01/01 13:25:59;;;;;;;14.65;6.05;;;12.80;99.90;;;;;;5154590;27;20080;-82
2022/01/01 13:28:44;;;;;;;10.52;5.38;;;12.80;99.90;;;;;;5154108;27;20041;-82
2022/01/01 13:31:30;;;;;;;14.00;6.00;;;12.80;99.90;;;;;;5154597;27;20095;-82
2022/01/01 13:34:14;;;;;;;14.40;5.78;;;12.80;99.90;;;;;;5154543;27;20046;-82
2022/01/01 13:37:04;;;;;;;15.90;7.03;;;12.80;99.90;;;;;;5154669;27;20046;-82
2022/01/01 13:39:48;;;;;;;16.52;7.70;;;12.80;99.90;;;;;;5153999;27;20040;-82
2022/01/01 13:42:32;;;;;;;14.02;6.15;;;12.80;99.90;;;;;;5153940;27;20087;-81
2022/01/01 13:45:16;;;;;;;;;;;12.80;99.90;;;;;;5154751;27;20034;-83
2022/01/01 13:48:08;;;;;;;14.60;5.65;;;12.70;99.90;;;;;;5154390;27;19918;-82
2022/01/01 13:50:52;;;;;;;12.23;6.78;;;12.70;99.90;;;;;;5154794;27;20091;-82
2022/01/01 13:53:38;;;;;;;11.75;5.80;;;12.70;99.90;;;;;;5130601;27;20053;-82
2022/01/01 13:56:23;;;;;;;16.60;6.30;;;12.70;99.90;;;;;;5161344;27;20053;-83
2022/01/01 13:59:08;;;;;;;11.13;5.80;;;12.70;99.90;;;;;;5145679;27;20069;-81
2022/01/01 14:01:52;;;;;;;15.00;6.22;;;12.70;99.90;;;;;;5160706;27;20543;-82
2022/01/01 14:04:37;;;;;;;14.65;6.88;;;12.70;99.90;;;;;;5160701;27;20099;-82
2022/01/01 14:07:22;;;;;;;14.55;7.68;;;12.70;99.90;;;;;;5161048;27;20037;-82
2022/01/01 14:10:13;;;;;;;11.77;6.22;;;12.70;99.90;;;;;;5145331;27;20402;-82
2022/01/01 14:13:00;;;;;;;13.90;6.35;;;12.70;99.90;;;;;;5160545;27;20083;-82
2022/01/01 14:15:44;;;;;;;13.77;6.72;;;12.70;99.90;;;;;;5160558;27;20046;-82
2022/01/01 14:18:32;;;;;;;;;;;12.70;99.90;;;;;;5161372;27;20038;-82